CIET2: Wichita River Nr Charlie, TX

Data processed at Sat Dec 09 2017 23:56


All information presented herein is the property of the government of the United States of America and may be revised or deleted at any time without prior notice.
Dissemination of this information without the expressed written consent of the Public Affairs Office, Tulsa District U.S. Army Corps of Engineers is strictly prohibited.
These data are gathered electronically and, as presented, have not undergone any form of quality control. These data are not guaranteed to be valid or correct.
Go to home page.
Go to station list.

Upstream stations:

Downstream station:
Previous Day
Next Day
Current Day
    
SHEF ID:       CHWT2     Wichita River nr Charlie, TX
STATION TYPE:  

               PRECIP     STAGE  RIV-FLOW  WTR-TEMP   CONDUCT  BAT-LOAD
                   in        ft       cfs         F   umho/cm      volt
              Ccp-Rev   Ccp-Rev   Ccp-Rev   Ccp-Rev   Ccp-Rev   Ccp-Rev
(US/Central)
12/07 00:00      0.00      4.91        61     49.68      4615     12.65
12/07 01:00      0.00      4.90        59     49.39      4592     12.65
12/07 02:00      0.00      4.90        59     49.08      4575     12.65
12/07 03:00      0.00      4.90        59     48.81      4562     12.60
12/07 04:00      0.00      4.90        59     48.45      4556     12.60
12/07 05:00      0.00      4.89        57     48.11      4554     12.60
12/07 06:00      0.00      4.90        59     47.71      4555     12.54
12/07 07:00      0.00      4.90        59     47.35      4560     12.54
12/07 08:00      0.00      4.89        57     46.90      4570     12.54
12/07 09:00      0.00      4.90        59     46.63      4582     13.07
12/07 10:00      0.00      4.89        57     46.35      4597     13.65
12/07 11:00      0.00      4.89        57     46.18      4611     14.06
12/07 12:00      0.00      4.89        57     46.24      4628     14.94
12/07 13:00      0.00      4.88        56     46.38      4638     14.94
12/07 14:00      0.00      4.88        56     46.51      4651     14.94
12/07 15:00      0.00      4.88        56     46.53      4662     14.94
12/07 16:00      0.00      4.88        56     46.47      4671     13.83
12/07 17:00      0.00      4.87        54     46.44      4673     13.71
12/07 18:00      0.00      4.87        54     46.26      4676     13.00
12/07 19:00      0.00      4.87        54     45.99      4671     12.71
12/07 20:00      0.00      4.87        54     45.68      4666     12.71
12/07 21:00      0.00      4.87        54     45.48      4661     12.65
12/07 22:00      0.00      4.87        54     45.05      4659     12.65
12/07 23:00      0.00      4.87        54     44.60      4644     12.65